Ocean Beaut — WDD7485 — position and weather

sailwx.info

Track history (hours):
 
Tides and Currents Weather Stations Pressure Air Temp Water Temp Dewpoint Dewpoint Depression Visibility Wind Speed Wind Dir Waves Ship Positions

Ocean Beaut

More information available from US FCC via Universal Licensing System.

Last reported at 2014-Jul-24 10:19 UTC. Time now 2014-Jul-24 10:44 UTC.
Position N 46°16' W 124°20'.

Length 20 m.

Type: Fishing. MMSI: 367187080.

Date/timePositionNaut miles runAvg speedWind from/ knotsBaromVisibWave heightAir tempDewpointWater temp
2014-Jul-24 10:19N 46°16' W 124°20'3 3.3
2014-Jul-24 09:24N 46°19' W 124°21'2 0.1
2014-Jul-23 21:21N 46°17' W 124°20'5 6.1
2014-Jul-23 20:29N 46°12' W 124°20'2 0.2
2014-Jul-23 12:33N 46°13' W 124°20'0 0.3
2014-Jul-23 11:03N 46°14' W 124°20'1 1.3
2014-Jul-23 10:24N 46°13' W 124°20'1 1.1
2014-Jul-23 09:30N 46°12' W 124°19'7 0.5
2014-Jul-22 21:15N 46°18' W 124°20'6 0.2
2014-Jul-21 17:33N 46°16' W 124°12'8 8.0
2014-Jul-21 16:33N 46°15' W 124°00'7 6.9
2014-Jul-21 15:31N 46°11' W 123°51'0 0.0
2014-Jul-21 14:31N 46°11' W 123°52'1 1.0
2014-Jul-21 13:33N 46°12' W 123°50'2 1.5
2014-Jul-21 12:31N 46°12' W 123°48'0 0.0
2014-Jul-21 11:31N 46°12' W 123°48'0 0.0
2014-Jul-21 10:31N 46°12' W 123°48'0 0.0
2014-Jul-21 09:31N 46°12' W 123°48'0 0.0
2014-Jul-21 08:31N 46°12' W 123°48'0 0.0
2014-Jul-21 07:32N 46°12' W 123°48'0 0.0
2014-Jul-21 06:32N 46°12' W 123°48'0 0.0
2014-Jul-21 05:31N 46°12' W 123°48'0 0.0
2014-Jul-21 04:32N 46°12' W 123°48'0 0.0
2014-Jul-21 03:32N 46°12' W 123°48'0 0.0
2014-Jul-21 02:32N 46°12' W 123°48'0 0.0
2014-Jul-21 01:32N 46°12' W 123°48'0 0.0
2014-Jul-21 00:32N 46°12' W 123°48'0 0.0
2014-Jul-20 23:32N 46°12' W 123°48'0 0.0
2014-Jul-20 22:32N 46°12' W 123°48'0 0.0
2014-Jul-20 21:32N 46°12' W 123°48'0 0.0
2014-Jul-20 20:32N 46°12' W 123°48'0 0.0
2014-Jul-20 19:32N 46°12' W 123°48'0 0.0
2014-Jul-20 18:32N 46°12' W 123°48'0 0.0
2014-Jul-20 17:32N 46°12' W 123°48'0 0.0
2014-Jul-20 16:32N 46°12' W 123°48'0 0.0
2014-Jul-20 15:32N 46°12' W 123°48'0 0.0
2014-Jul-20 14:32N 46°12' W 123°48'0 0.0
2014-Jul-20 13:32N 46°12' W 123°48'0 0.0
2014-Jul-20 12:32N 46°12' W 123°48'0 0.0
2014-Jul-20 11:32N 46°12' W 123°48'0 0.0
2014-Jul-20 10:32N 46°12' W 123°48'0 0.0
2014-Jul-20 09:32N 46°12' W 123°48'0 0.0
2014-Jul-20 08:32N 46°12' W 123°48'0 0.0
2014-Jul-20 07:32N 46°12' W 123°48'0 0.0
2014-Jul-20 06:32N 46°12' W 123°48'0 0.0
2014-Jul-20 05:32N 46°12' W 123°48'0 0.0
2014-Jul-20 04:32N 46°12' W 123°48'0 0.0
2014-Jul-20 03:32N 46°12' W 123°48'0 0.0
2014-Jul-20 02:32N 46°12' W 123°48'0 0.0
2014-Jul-20 01:32N 46°12' W 123°48'0 0.0
2014-Jul-20 00:32N 46°12' W 123°48'0 0.0
2014-Jul-19 23:32N 46°12' W 123°48'0 0.0
2014-Jul-19 22:32N 46°12' W 123°48'0 0.0
2014-Jul-19 21:32N 46°12' W 123°48'0 0.0
2014-Jul-19 20:32N 46°12' W 123°48'0 0.0
2014-Jul-19 19:32N 46°12' W 123°48'0 0.0
2014-Jul-19 18:32N 46°12' W 123°48'0 0.0
2014-Jul-19 17:32N 46°12' W 123°48'0 0.0
2014-Jul-19 16:32N 46°12' W 123°48'0 0.0
2014-Jul-19 15:32N 46°12' W 123°48'0 0.0
2014-Jul-19 14:32N 46°12' W 123°48'0 0.0
2014-Jul-19 13:32N 46°12' W 123°48'0 0.0
2014-Jul-19 12:32N 46°12' W 123°48'0 0.0
2014-Jul-19 11:32N 46°12' W 123°48'0 0.0
2014-Jul-19 10:32N 46°12' W 123°48'0 0.0
2014-Jul-19 09:32N 46°12' W 123°48'0 0.0
2014-Jul-19 08:32N 46°12' W 123°48'0 0.0
2014-Jul-19 07:32N 46°12' W 123°48'0 0.0
2014-Jul-19 06:32N 46°12' W 123°48'0 0.0
2014-Jul-19 05:32N 46°12' W 123°48'0 0.0
2014-Jul-19 04:32N 46°12' W 123°48'0 0.0
2014-Jul-19 03:32N 46°12' W 123°48'0 0.0
2014-Jul-19 02:32N 46°12' W 123°48'0 0.0
2014-Jul-19 01:32N 46°12' W 123°48'0 0.0
2014-Jul-19 00:32N 46°12' W 123°48'0 0.0
2014-Jul-18 23:32N 46°12' W 123°48'0 0.0
2014-Jul-18 22:32N 46°12' W 123°48'0 0.0
2014-Jul-18 21:32N 46°12' W 123°48'0 0.0
2014-Jul-18 20:32N 46°12' W 123°48'0 0.0
2014-Jul-18 19:32N 46°12' W 123°48'2 1.5
2014-Jul-18 18:33N 46°12' W 123°50'1 0.9
2014-Jul-18 17:32N 46°11' W 123°51'0 0.0
2014-Jul-18 16:32N 46°11' W 123°51'0 0.0
2014-Jul-18 15:32N 46°11' W 123°51'0 0.0
2014-Jul-18 14:29N 46°11' W 123°51'0 0.0
2014-Jul-18 13:32N 46°11' W 123°51'0 0.0
2014-Jul-18 12:32N 46°11' W 123°51'0 0.0
2014-Jul-18 11:32N 46°11' W 123°51'2 2.4
2014-Jul-18 10:33N 46°12' W 123°48'0 0.0
2014-Jul-18 09:33N 46°12' W 123°48'0 0.0
2014-Jul-18 08:33N 46°12' W 123°48'0 0.0
2014-Jul-18 07:33N 46°12' W 123°48'0 0.0
2014-Jul-18 06:33N 46°12' W 123°48'0 0.0
2014-Jul-18 05:33N 46°12' W 123°48'0 0.0
2014-Jul-18 04:33N 46°12' W 123°48'0 0.0
2014-Jul-18 03:33N 46°12' W 123°48'0 0.0
2014-Jul-18 02:33N 46°12' W 123°48'0 0.0
2014-Jul-18 01:33N 46°12' W 123°48'0 0.0
2014-Jul-18 00:33N 46°12' W 123°48'0 0.0
2014-Jul-17 23:33N 46°12' W 123°48'0 0.0
2014-Jul-17 22:33N 46°12' W 123°48'2 2.4
2014-Jul-17 21:32N 46°11' W 123°51'5 4.7
2014-Jul-17 20:33N 46°13' W 123°58'6 6.3
2014-Jul-17 19:33N 46°15' W 124°06'5 4.7
2014-Jul-17 18:33N 46°18' W 124°11'3 2.6
2014-Jul-17 17:24N 46°21' W 124°13'1 1.1
2014-Jul-17 16:30N 46°22' W 124°13'1 0.7
2014-Jul-17 15:26N 46°22' W 124°14'2 1.8
2014-Jul-17 14:12N 46°24' W 124°16'2 2.4
2014-Jul-17 13:14N 46°26' W 124°16'2 2.7
2014-Jul-17 12:33N 46°28' W 124°16'3 1.3
2014-Jul-17 10:26N 46°26' W 124°14'0 0.4
2014-Jul-17 09:33N 46°26' W 124°14'1 0.7
2014-Jul-17 08:31N 46°27' W 124°15'0 0.4
2014-Jul-17 07:29N 46°27' W 124°16'2 1.9
2014-Jul-17 06:16N 46°25' W 124°16'3 2.4
2014-Jul-17 05:13N 46°22' W 124°15'2 2.6
2014-Jul-17 04:32N 46°20' W 124°15'6 5.9
2014-Jul-17 03:33N 46°15' W 124°13'6 5.9
2014-Jul-17 02:31N 46°09' W 124°12'7 6.4
2014-Jul-17 01:30N 46°03' W 124°07'2 1.8
2014-Jul-17 00:32N 46°01' W 124°06'3 2.5
2014-Jul-16 23:28N 45°59' W 124°06'4 1.7
2014-Jul-16 21:15N 45°55' W 124°06'3 3.6
2014-Jul-16 20:32N 45°54' W 124°09'16 1.7
2014-Jul-16 11:15N 46°08' W 124°19'0 0.5
2014-Jul-16 10:27N 46°09' W 124°19'11 2.1
2014-Jul-16 05:17N 45°58' W 124°15'18 2.0
2014-Jul-15 20:20N 46°15' W 124°20'40 3.4
2014-Jul-15 08:24N 46°55' W 124°35'  
Track history (hours):
 
Tides and Currents Weather Stations Pressure Air Temp Water Temp Dewpoint Dewpoint Depression Visibility Wind Speed Wind Dir Waves Ship Positions

Ocean Beaut

More information available from US FCC via Universal Licensing System.

Last reported at 2014-Jul-24 10:19 UTC. Time now 2014-Jul-24 10:44 UTC.
Position N 46°16' W 124°20'.

Length 20 m.

Type: Fishing. MMSI: 367187080.

Date/timePositionNaut miles runAvg speedWind from/ knotsBaromVisibWave heightAir tempDewpointWater temp
2014-Jul-24 10:19N 46°16' W 124°20'3 3.3
2014-Jul-24 09:24N 46°19' W 124°21'2 0.1
2014-Jul-23 21:21N 46°17' W 124°20'5 6.1
2014-Jul-23 20:29N 46°12' W 124°20'2 0.2
2014-Jul-23 12:33N 46°13' W 124°20'0 0.3
2014-Jul-23 11:03N 46°14' W 124°20'1 1.3
2014-Jul-23 10:24N 46°13' W 124°20'1 1.1
2014-Jul-23 09:30N 46°12' W 124°19'7 0.5
2014-Jul-22 21:15N 46°18' W 124°20'6 0.2
2014-Jul-21 17:33N 46°16' W 124°12'8 8.0
2014-Jul-21 16:33N 46°15' W 124°00'7 6.9
2014-Jul-21 15:31N 46°11' W 123°51'0 0.0
2014-Jul-21 14:31N 46°11' W 123°52'1 1.0
2014-Jul-21 13:33N 46°12' W 123°50'2 1.5
2014-Jul-21 12:31N 46°12' W 123°48'0 0.0
2014-Jul-21 11:31N 46°12' W 123°48'0 0.0
2014-Jul-21 10:31N 46°12' W 123°48'0 0.0
2014-Jul-21 09:31N 46°12' W 123°48'0 0.0
2014-Jul-21 08:31N 46°12' W 123°48'0 0.0
2014-Jul-21 07:32N 46°12' W 123°48'0 0.0
2014-Jul-21 06:32N 46°12' W 123°48'0 0.0
2014-Jul-21 05:31N 46°12' W 123°48'0 0.0
2014-Jul-21 04:32N 46°12' W 123°48'0 0.0
2014-Jul-21 03:32N 46°12' W 123°48'0 0.0
2014-Jul-21 02:32N 46°12' W 123°48'0 0.0
2014-Jul-21 01:32N 46°12' W 123°48'0 0.0
2014-Jul-21 00:32N 46°12' W 123°48'0 0.0
2014-Jul-20 23:32N 46°12' W 123°48'0 0.0
2014-Jul-20 22:32N 46°12' W 123°48'0 0.0
2014-Jul-20 21:32N 46°12' W 123°48'0 0.0
2014-Jul-20 20:32N 46°12' W 123°48'0 0.0
2014-Jul-20 19:32N 46°12' W 123°48'0 0.0
2014-Jul-20 18:32N 46°12' W 123°48'0 0.0
2014-Jul-20 17:32N 46°12' W 123°48'0 0.0
2014-Jul-20 16:32N 46°12' W 123°48'0 0.0
2014-Jul-20 15:32N 46°12' W 123°48'0 0.0
2014-Jul-20 14:32N 46°12' W 123°48'0 0.0
2014-Jul-20 13:32N 46°12' W 123°48'0 0.0
2014-Jul-20 12:32N 46°12' W 123°48'0 0.0
2014-Jul-20 11:32N 46°12' W 123°48'0 0.0
2014-Jul-20 10:32N 46°12' W 123°48'0 0.0
2014-Jul-20 09:32N 46°12' W 123°48'0 0.0
2014-Jul-20 08:32N 46°12' W 123°48'0 0.0
2014-Jul-20 07:32N 46°12' W 123°48'0 0.0
2014-Jul-20 06:32N 46°12' W 123°48'0 0.0
2014-Jul-20 05:32N 46°12' W 123°48'0 0.0
2014-Jul-20 04:32N 46°12' W 123°48'0 0.0
2014-Jul-20 03:32N 46°12' W 123°48'0 0.0
2014-Jul-20 02:32N 46°12' W 123°48'0 0.0
2014-Jul-20 01:32N 46°12' W 123°48'0 0.0
2014-Jul-20 00:32N 46°12' W 123°48'0 0.0
2014-Jul-19 23:32N 46°12' W 123°48'0 0.0
2014-Jul-19 22:32N 46°12' W 123°48'0 0.0
2014-Jul-19 21:32N 46°12' W 123°48'0 0.0
2014-Jul-19 20:32N 46°12' W 123°48'0 0.0
2014-Jul-19 19:32N 46°12' W 123°48'0 0.0
2014-Jul-19 18:32N 46°12' W 123°48'0 0.0
2014-Jul-19 17:32N 46°12' W 123°48'0 0.0
2014-Jul-19 16:32N 46°12' W 123°48'0 0.0
2014-Jul-19 15:32N 46°12' W 123°48'0 0.0
2014-Jul-19 14:32N 46°12' W 123°48'0 0.0
2014-Jul-19 13:32N 46°12' W 123°48'0 0.0
2014-Jul-19 12:32N 46°12' W 123°48'0 0.0
2014-Jul-19 11:32N 46°12' W 123°48'0 0.0
2014-Jul-19 10:32N 46°12' W 123°48'0 0.0
2014-Jul-19 09:32N 46°12' W 123°48'0 0.0
2014-Jul-19 08:32N 46°12' W 123°48'0 0.0
2014-Jul-19 07:32N 46°12' W 123°48'0 0.0
2014-Jul-19 06:32N 46°12' W 123°48'0 0.0
2014-Jul-19 05:32N 46°12' W 123°48'0 0.0
2014-Jul-19 04:32N 46°12' W 123°48'0 0.0
2014-Jul-19 03:32N 46°12' W 123°48'0 0.0
2014-Jul-19 02:32N 46°12' W 123°48'0 0.0
2014-Jul-19 01:32N 46°12' W 123°48'0 0.0
2014-Jul-19 00:32N 46°12' W 123°48'0 0.0
2014-Jul-18 23:32N 46°12' W 123°48'0 0.0
2014-Jul-18 22:32N 46°12' W 123°48'0 0.0
2014-Jul-18 21:32N 46°12' W 123°48'0 0.0
2014-Jul-18 20:32N 46°12' W 123°48'0 0.0
2014-Jul-18 19:32N 46°12' W 123°48'2 1.5
2014-Jul-18 18:33N 46°12' W 123°50'1 0.9
2014-Jul-18 17:32N 46°11' W 123°51'0 0.0
2014-Jul-18 16:32N 46°11' W 123°51'0 0.0
2014-Jul-18 15:32N 46°11' W 123°51'0 0.0
2014-Jul-18 14:29N 46°11' W 123°51'0 0.0
2014-Jul-18 13:32N 46°11' W 123°51'0 0.0
2014-Jul-18 12:32N 46°11' W 123°51'0 0.0
2014-Jul-18 11:32N 46°11' W 123°51'2 2.4
2014-Jul-18 10:33N 46°12' W 123°48'0 0.0
2014-Jul-18 09:33N 46°12' W 123°48'0 0.0
2014-Jul-18 08:33N 46°12' W 123°48'0 0.0
2014-Jul-18 07:33N 46°12' W 123°48'0 0.0
2014-Jul-18 06:33N 46°12' W 123°48'0 0.0
2014-Jul-18 05:33N 46°12' W 123°48'0 0.0
2014-Jul-18 04:33N 46°12' W 123°48'0 0.0
2014-Jul-18 03:33N 46°12' W 123°48'0 0.0
2014-Jul-18 02:33N 46°12' W 123°48'0 0.0
2014-Jul-18 01:33N 46°12' W 123°48'0 0.0
2014-Jul-18 00:33N 46°12' W 123°48'0 0.0
2014-Jul-17 23:33N 46°12' W 123°48'0 0.0
2014-Jul-17 22:33N 46°12' W 123°48'2 2.4
2014-Jul-17 21:32N 46°11' W 123°51'5 4.7
2014-Jul-17 20:33N 46°13' W 123°58'6 6.3
2014-Jul-17 19:33N 46°15' W 124°06'5 4.7
2014-Jul-17 18:33N 46°18' W 124°11'3 2.6
2014-Jul-17 17:24N 46°21' W 124°13'1 1.1
2014-Jul-17 16:30N 46°22' W 124°13'1 0.7
2014-Jul-17 15:26N 46°22' W 124°14'2 1.8
2014-Jul-17 14:12N 46°24' W 124°16'2 2.4
2014-Jul-17 13:14N 46°26' W 124°16'2 2.7
2014-Jul-17 12:33N 46°28' W 124°16'3 1.3
2014-Jul-17 10:26N 46°26' W 124°14'0 0.4
2014-Jul-17 09:33N 46°26' W 124°14'1 0.7
2014-Jul-17 08:31N 46°27' W 124°15'0 0.4
2014-Jul-17 07:29N 46°27' W 124°16'2 1.9
2014-Jul-17 06:16N 46°25' W 124°16'3 2.4
2014-Jul-17 05:13N 46°22' W 124°15'2 2.6
2014-Jul-17 04:32N 46°20' W 124°15'6 5.9
2014-Jul-17 03:33N 46°15' W 124°13'6 5.9
2014-Jul-17 02:31N 46°09' W 124°12'7 6.4
2014-Jul-17 01:30N 46°03' W 124°07'2 1.8
2014-Jul-17 00:32N 46°01' W 124°06'3 2.5
2014-Jul-16 23:28N 45°59' W 124°06'4 1.7
2014-Jul-16 21:15N 45°55' W 124°06'3 3.6
2014-Jul-16 20:32N 45°54' W 124°09'16 1.7
2014-Jul-16 11:15N 46°08' W 124°19'0 0.5
2014-Jul-16 10:27N 46°09' W 124°19'11 2.1
2014-Jul-16 05:17N 45°58' W 124°15'18 2.0
2014-Jul-15 20:20N 46°15' W 124°20'40 3.4
2014-Jul-15 08:24N 46°55' W 124°35'  

Dump ship's entire track history